createdAt,value
2023-05-04T00:02:20.493Z,65.27
2023-05-04T00:04:53.651Z,65.01
2023-05-04T00:07:22.152Z,64.97
2023-05-04T00:09:51.458Z,65.20
2023-05-04T00:12:22.566Z,65.43
2023-05-04T00:14:53.132Z,65.58
2023-05-04T00:17:21.362Z,65.72
2023-05-04T00:19:54.617Z,65.96
2023-05-04T00:22:33.818Z,66.22
2023-05-04T00:25:05.244Z,65.87
2023-05-04T00:27:38.027Z,66.11
2023-05-04T00:30:09.872Z,65.53
2023-05-04T00:32:41.052Z,65.87
2023-05-04T00:35:10.889Z,66.00
2023-05-04T00:37:39.180Z,66.15
2023-05-04T00:40:09.927Z,66.02
2023-05-04T00:42:44.038Z,66.10
2023-05-04T00:45:13.718Z,66.09
2023-05-04T00:47:50.259Z,66.45
2023-05-04T00:50:23.172Z,66.41
2023-05-04T00:52:54.113Z,66.09
2023-05-04T00:55:25.140Z,66.07
2023-05-04T00:57:54.339Z,65.83
2023-05-04T01:00:25.828Z,66.14
2023-05-04T01:02:55.938Z,66.64
2023-05-04T01:05:32.050Z,66.60
2023-05-04T01:08:09.643Z,66.61
2023-05-04T01:10:49.382Z,67.14
2023-05-04T01:13:21.336Z,66.81
2023-05-04T01:15:51.420Z,66.82
2023-05-04T01:18:26.561Z,66.94
2023-05-04T01:20:54.792Z,67.12
2023-05-04T01:23:26.594Z,67.23
2023-05-04T01:26:03.896Z,67.42
2023-05-04T01:28:41.648Z,67.07
2023-05-04T01:31:17.128Z,67.21
2023-05-04T01:33:48.786Z,67.08
2023-05-04T01:36:23.868Z,67.21
2023-05-04T01:38:56.904Z,67.23
2023-05-04T01:41:25.161Z,67.42
2023-05-04T01:43:54.245Z,67.88
2023-05-04T01:46:28.534Z,67.82
2023-05-04T01:48:56.861Z,67.41
2023-05-04T01:51:25.085Z,67.26
2023-05-04T01:53:53.292Z,67.65
2023-05-04T01:56:24.346Z,67.73
2023-05-04T01:58:58.938Z,67.35
2023-05-04T02:01:28.681Z,67.97
2023-05-04T02:04:03.387Z,67.98
2023-05-04T02:06:36.234Z,67.82
2023-05-04T02:09:06.421Z,68.67
2023-05-04T02:11:37.345Z,68.35
2023-05-04T02:14:05.670Z,68.03
2023-05-04T02:16:36.018Z,68.23
2023-05-04T02:19:13.010Z,68.60
2023-05-04T02:21:43.825Z,69.15
2023-05-04T02:24:13.698Z,68.86
2023-05-04T02:26:43.260Z,69.09
2023-05-04T02:29:11.440Z,69.02
2023-05-04T02:31:40.612Z,68.76
2023-05-04T02:34:08.960Z,68.57
2023-05-04T02:36:42.625Z,68.27
2023-05-04T02:39:10.812Z,68.72
2023-05-04T02:41:38.983Z,68.62
2023-05-04T02:44:13.655Z,69.10
2023-05-04T02:46:41.786Z,70.06
2023-05-04T02:49:19.293Z,69.34
2023-05-04T02:51:47.792Z,69.34
2023-05-04T02:54:15.984Z,69.12
2023-05-04T02:56:46.647Z,69.11
2023-05-04T02:59:18.171Z,69.60
2023-05-04T03:01:46.516Z,69.97
2023-05-04T03:04:14.807Z,70.03
2023-05-04T03:06:42.963Z,70.45
2023-05-04T03:09:11.379Z,69.95
2023-05-04T03:11:39.502Z,70.38
2023-05-04T03:14:15.064Z,70.40
2023-05-04T03:16:51.529Z,69.99
2023-05-04T03:19:22.223Z,70.31
2023-05-04T03:21:58.236Z,70.29
2023-05-04T03:24:26.838Z,70.48
2023-05-04T03:26:55.213Z,70.72
2023-05-04T03:29:32.266Z,70.61
2023-05-04T03:32:10.482Z,70.81
2023-05-04T03:34:38.729Z,70.82
2023-05-04T03:37:08.044Z,70.71
2023-05-04T03:39:38.897Z,71.47
2023-05-04T03:42:11.427Z,70.96
2023-05-04T03:44:45.300Z,70.74
2023-05-04T03:47:18.679Z,71.10
2023-05-04T03:49:49.816Z,71.02
2023-05-04T03:52:26.574Z,71.04
2023-05-04T03:54:54.799Z,71.07
2023-05-04T03:57:24.266Z,70.97
2023-05-04T03:59:59.016Z,71.00
2023-05-04T04:02:31.737Z,71.17
2023-05-04T04:05:03.068Z,71.22
2023-05-04T04:07:33.131Z,70.94
2023-05-04T04:10:04.809Z,71.13
2023-05-04T04:12:33.262Z,71.08
2023-05-04T04:15:03.088Z,71.00
2023-05-04T04:17:31.490Z,71.18
2023-05-04T04:19:59.748Z,71.18
2023-05-04T04:22:27.957Z,70.86
2023-05-04T04:25:01.498Z,70.87
2023-05-04T04:27:32.717Z,70.68
2023-05-04T04:30:02.713Z,70.84
2023-05-04T04:32:31.510Z,71.06
2023-05-04T04:35:02.683Z,70.73
2023-05-04T04:37:48.945Z,70.69
2023-05-04T04:40:17.690Z,70.66
2023-05-04T04:42:51.291Z,70.60
2023-05-04T04:45:24.100Z,70.78
2023-05-04T04:47:56.669Z,70.50
2023-05-04T04:50:29.842Z,70.20
2023-05-04T04:53:00.988Z,70.08
2023-05-04T04:55:31.939Z,70.19
2023-05-04T04:58:00.346Z,70.08
2023-05-04T05:00:32.940Z,70.16
2023-05-04T05:03:04.585Z,70.11
2023-05-04T05:05:40.967Z,69.71
2023-05-04T05:08:09.163Z,70.00
2023-05-04T05:10:37.458Z,69.56
2023-05-04T05:13:05.883Z,69.23
2023-05-04T05:15:35.489Z,69.19
2023-05-04T05:18:05.254Z,68.70
2023-05-04T05:20:35.054Z,68.41
2023-05-04T05:23:08.030Z,68.01
2023-05-04T05:25:37.143Z,67.91
2023-05-04T05:28:07.593Z,67.81
2023-05-04T05:30:40.682Z,67.83
2023-05-04T05:33:11.751Z,67.24
2023-05-04T05:35:43.480Z,67.12
2023-05-04T05:38:16.146Z,66.62
2023-05-04T05:40:52.277Z,66.55
2023-05-04T05:43:21.902Z,66.42
2023-05-04T05:45:51.450Z,65.92
2023-05-04T05:48:20.056Z,66.07
2023-05-04T05:50:48.608Z,65.90
2023-05-04T05:53:16.920Z,66.14
2023-05-04T05:55:45.097Z,65.47
2023-05-04T05:58:16.898Z,65.89
2023-05-04T06:00:48.354Z,65.57
2023-05-04T06:03:19.410Z,65.64
2023-05-04T06:05:47.736Z,64.95
2023-05-04T06:08:15.901Z,64.88
2023-05-04T06:10:44.152Z,64.57
2023-05-04T06:13:12.309Z,64.16
2023-05-04T06:15:42.478Z,63.40
2023-05-04T06:18:17.822Z,63.33
2023-05-04T06:20:50.115Z,62.82
2023-05-04T06:23:18.470Z,62.78
2023-05-04T06:25:46.696Z,62.72
2023-05-04T06:28:15.037Z,62.35
2023-05-04T06:30:46.071Z,62.20
2023-05-04T06:33:14.268Z,62.05
2023-05-04T06:35:42.824Z,61.77
2023-05-04T06:38:12.563Z,61.59
2023-05-04T06:40:44.881Z,61.67
2023-05-04T06:43:30.101Z,60.90
2023-05-04T06:46:03.605Z,60.80
2023-05-04T06:48:35.272Z,60.15
2023-05-04T06:51:03.567Z,59.78
2023-05-04T06:53:36.156Z,59.24
2023-05-04T06:56:04.374Z,58.94
2023-05-04T06:58:32.625Z,58.71
2023-05-04T07:01:03.807Z,58.53
2023-05-04T07:03:32.616Z,58.05
2023-05-04T07:06:00.914Z,57.50
2023-05-04T07:08:29.171Z,56.95
2023-05-04T07:11:13.014Z,56.50
2023-05-04T07:13:46.019Z,56.04
2023-05-04T07:16:15.284Z,55.71
2023-05-04T07:18:44.833Z,55.20
2023-05-04T07:21:26.851Z,54.64
2023-05-04T07:24:00.143Z,54.30
2023-05-04T07:26:29.745Z,53.97
2023-05-04T07:28:59.319Z,53.55
2023-05-04T07:31:30.071Z,52.68
2023-05-04T07:33:58.765Z,51.96
2023-05-04T07:36:29.172Z,51.53
2023-05-04T07:39:00.420Z,51.87
2023-05-04T07:41:30.376Z,50.77
2023-05-04T07:43:58.638Z,50.06
2023-05-04T07:46:27.032Z,50.09
2023-05-04T07:48:57.114Z,49.78
2023-05-04T07:51:32.038Z,49.21
2023-05-04T07:54:06.145Z,48.86
2023-05-04T07:56:36.718Z,48.22
2023-05-04T07:59:05.003Z,48.17
2023-05-04T08:01:33.286Z,48.07
2023-05-04T08:04:01.472Z,46.70
2023-05-04T08:06:37.300Z,45.25
2023-05-04T08:09:05.516Z,44.98
2023-05-04T08:11:37.611Z,44.44
2023-05-04T08:14:08.203Z,43.23
2023-05-04T08:16:36.792Z,42.17
2023-05-04T08:19:07.701Z,41.87
2023-05-04T08:21:35.892Z,41.61
2023-05-04T08:24:04.389Z,41.41
2023-05-04T08:26:32.600Z,40.46
2023-05-04T08:29:10.594Z,39.73
2023-05-04T08:31:41.203Z,39.38
2023-05-04T08:34:09.426Z,38.80
2023-05-04T08:36:42.152Z,38.53
2023-05-04T08:39:13.326Z,38.55
2023-05-04T08:41:42.002Z,38.28
2023-05-04T08:44:12.959Z,37.89
2023-05-04T08:46:42.377Z,37.58
2023-05-04T08:49:13.396Z,38.14
2023-05-04T08:51:46.689Z,37.81
2023-05-04T08:54:15.443Z,37.78
2023-05-04T08:56:46.559Z,37.62
2023-05-04T08:59:31.635Z,36.94
2023-05-04T09:02:02.163Z,37.38
2023-05-04T09:04:32.167Z,37.16
2023-05-04T09:07:03.621Z,36.72
2023-05-04T09:09:32.383Z,37.39
2023-05-04T09:12:02.659Z,36.63
2023-05-04T09:14:41.872Z,37.41
2023-05-04T09:17:25.929Z,36.54
2023-05-04T09:20:01.495Z,36.14
2023-05-04T09:22:30.912Z,36.42
2023-05-04T09:25:11.697Z,34.77
2023-05-04T09:27:41.779Z,35.67
2023-05-04T09:30:14.648Z,34.73
2023-05-04T09:32:47.321Z,33.59
2023-05-04T09:35:32.022Z,35.13
2023-05-04T09:38:01.538Z,33.98
2023-05-04T09:40:33.896Z,34.25
2023-05-04T09:43:02.621Z,34.56
2023-05-04T09:45:42.817Z,33.85
2023-05-04T09:48:21.870Z,34.19
2023-05-04T09:50:54.944Z,33.79
2023-05-04T09:53:25.209Z,33.99
2023-05-04T09:56:12.561Z,33.75
2023-05-04T09:58:41.328Z,34.95
2023-05-04T10:01:11.645Z,34.82
2023-05-04T10:03:41.138Z,34.78
2023-05-04T10:06:13.058Z,33.93
2023-05-04T10:08:42.153Z,34.15
2023-05-04T10:11:10.558Z,34.37
2023-05-04T10:13:38.900Z,34.04
2023-05-04T10:16:34.749Z,33.90
2023-05-04T10:19:44.993Z,34.23
2023-05-04T10:22:28.670Z,33.34
2023-05-04T10:25:34.769Z,33.72
2023-05-04T10:28:14.392Z,33.97
2023-05-04T10:30:42.709Z,33.39
2023-05-04T10:33:13.293Z,33.16
2023-05-04T10:35:53.093Z,34.10
2023-05-04T10:38:33.539Z,34.54
2023-05-04T10:41:04.637Z,34.71
2023-05-04T10:43:33.322Z,33.66
2023-05-04T10:46:02.460Z,33.88
2023-05-04T10:48:39.750Z,33.54
2023-05-04T10:51:19.832Z,34.32
2023-05-04T10:53:49.758Z,34.30
2023-05-04T10:56:26.719Z,34.32
2023-05-04T10:58:55.909Z,35.25
2023-05-04T11:01:24.357Z,33.58
2023-05-04T11:03:55.325Z,34.78
2023-05-04T11:06:25.393Z,35.25
2023-05-04T11:09:06.311Z,35.77
2023-05-04T11:11:42.151Z,35.03
2023-05-04T11:14:11.515Z,35.54
2023-05-04T11:16:39.967Z,34.54
2023-05-04T11:19:12.616Z,35.22
2023-05-04T11:21:49.372Z,33.63
2023-05-04T11:24:21.165Z,34.27
2023-05-04T11:26:52.699Z,32.62
2023-05-04T11:29:22.793Z,33.54
2023-05-04T11:31:57.279Z,33.05
2023-05-04T11:34:29.344Z,32.71
2023-05-04T11:36:57.632Z,31.99
2023-05-04T11:39:32.666Z,32.49
2023-05-04T11:42:03.089Z,32.19
2023-05-04T11:44:31.463Z,31.40
2023-05-04T11:46:59.696Z,31.10
2023-05-04T11:49:31.140Z,31.47
2023-05-04T11:52:07.908Z,31.88
2023-05-04T11:54:36.985Z,32.30
2023-05-04T11:57:05.794Z,33.09
2023-05-04T11:59:34.015Z,30.18
2023-05-04T12:02:07.108Z,28.80
2023-05-04T12:04:37.997Z,31.06
2023-05-04T12:07:08.893Z,30.69
2023-05-04T12:09:46.413Z,28.98
2023-05-04T12:12:16.108Z,28.56
2023-05-04T12:14:55.312Z,28.11
2023-05-04T12:17:24.216Z,27.83
2023-05-04T12:19:56.035Z,29.01
2023-05-04T12:22:32.901Z,28.11
2023-05-04T12:25:05.105Z,27.93
2023-05-04T12:27:35.250Z,27.71
2023-05-04T12:30:03.477Z,28.51
2023-05-04T12:32:33.819Z,27.65
2023-05-04T12:35:04.335Z,28.42
2023-05-04T12:37:32.738Z,27.54
2023-05-04T12:40:01.067Z,27.04
2023-05-04T12:42:29.761Z,27.63
2023-05-04T12:45:00.616Z,27.13
2023-05-04T12:47:28.931Z,27.97
2023-05-04T12:50:05.271Z,27.06
2023-05-04T12:52:34.765Z,27.17
2023-05-04T12:55:06.096Z,27.55
2023-05-04T12:57:34.838Z,27.99
2023-05-04T13:00:04.412Z,27.35
2023-05-04T13:02:33.063Z,28.79
2023-05-04T13:05:01.552Z,27.77
2023-05-04T13:07:29.777Z,25.93
2023-05-04T13:10:00.146Z,26.80
2023-05-04T13:12:28.476Z,27.72
2023-05-04T13:14:58.111Z,26.66
2023-05-04T13:17:26.787Z,27.54
2023-05-04T13:19:54.979Z,26.23
2023-05-04T13:22:23.229Z,26.28
2023-05-04T13:24:51.385Z,25.79
2023-05-04T13:27:20.939Z,27.26
2023-05-04T13:29:49.118Z,27.14
2023-05-04T13:32:17.435Z,26.33
2023-05-04T13:34:45.727Z,26.09
2023-05-04T13:37:18.430Z,25.91
2023-05-04T13:39:46.987Z,25.44
2023-05-04T13:42:15.486Z,26.04
2023-05-04T13:44:45.758Z,25.79
2023-05-04T13:47:16.589Z,25.20
2023-05-04T13:49:44.908Z,26.94
2023-05-04T13:52:13.610Z,26.42
2023-05-04T13:54:42.349Z,26.07
2023-05-04T13:57:10.560Z,26.37
2023-05-04T13:59:38.673Z,25.76
2023-05-04T14:02:08.989Z,26.15
2023-05-04T14:04:39.343Z,27.92
2023-05-04T14:07:09.176Z,26.56
2023-05-04T14:09:37.674Z,25.18
2023-05-04T14:12:06.790Z,25.25
2023-05-04T14:14:35.109Z,26.21
2023-05-04T14:17:03.363Z,27.28
2023-05-04T14:19:32.937Z,27.11
2023-05-04T14:22:02.675Z,27.63
2023-05-04T14:24:31.655Z,26.69
2023-05-04T14:26:59.819Z,26.87
2023-05-04T14:29:28.458Z,27.14
2023-05-04T14:31:56.776Z,25.85
2023-05-04T14:34:27.377Z,25.58
2023-05-04T14:36:57.129Z,25.12
2023-05-04T14:39:27.645Z,25.31
2023-05-04T14:41:57.147Z,25.33
2023-05-04T14:44:27.214Z,25.13
2023-05-04T14:46:56.413Z,25.14
2023-05-04T14:49:35.940Z,24.84
2023-05-04T14:52:07.614Z,25.36
2023-05-04T14:54:36.002Z,25.77
2023-05-04T14:57:04.649Z,25.87
2023-05-04T14:59:32.774Z,25.14
2023-05-04T15:02:01.071Z,25.87
2023-05-04T15:04:29.327Z,25.42
2023-05-04T15:06:57.827Z,25.66
2023-05-04T15:09:27.576Z,25.10
2023-05-04T15:11:55.819Z,25.54
2023-05-04T15:14:28.353Z,25.55
2023-05-04T15:16:56.581Z,25.88
2023-05-04T15:19:30.780Z,25.95
2023-05-04T15:21:59.475Z,26.08
2023-05-04T15:24:29.091Z,25.33
2023-05-04T15:27:01.684Z,25.65
2023-05-04T15:29:34.853Z,26.46
2023-05-04T15:32:05.650Z,26.71
2023-05-04T15:34:36.821Z,26.49
2023-05-04T15:37:06.855Z,27.59
2023-05-04T15:39:36.561Z,26.46
2023-05-04T15:42:07.553Z,27.22
2023-05-04T15:44:41.012Z,27.71
2023-05-04T15:47:13.385Z,27.11
2023-05-04T15:49:44.856Z,26.51
2023-05-04T15:52:13.028Z,26.75
2023-05-04T15:54:42.548Z,27.32
2023-05-04T15:57:16.136Z,27.01
2023-05-04T15:59:44.316Z,27.31
2023-05-04T16:02:12.509Z,25.91
2023-05-04T16:04:40.842Z,25.66
2023-05-04T16:07:10.926Z,25.45
2023-05-04T16:09:39.200Z,25.60
2023-05-04T16:12:14.241Z,26.04
2023-05-04T16:14:42.706Z,26.83
2023-05-04T16:17:13.681Z,26.89
2023-05-04T16:19:41.833Z,26.35
2023-05-04T16:22:19.239Z,25.93
2023-05-04T16:24:47.670Z,27.56
2023-05-04T16:27:26.852Z,27.89
2023-05-04T16:30:00.045Z,28.09
2023-05-04T16:32:31.075Z,27.13
2023-05-04T16:35:00.799Z,26.67
2023-05-04T16:37:29.136Z,27.13
2023-05-04T16:39:57.452Z,26.23
2023-05-04T16:42:27.282Z,26.91
2023-05-04T16:44:58.252Z,26.83
2023-05-04T16:47:26.588Z,27.39
2023-05-04T16:49:54.771Z,26.47
2023-05-04T16:52:25.502Z,27.89
2023-05-04T16:54:53.860Z,27.66
2023-05-04T16:57:24.271Z,28.08
2023-05-04T16:59:57.009Z,29.59
2023-05-04T17:02:25.817Z,28.84
2023-05-04T17:04:57.485Z,28.54
2023-05-04T17:07:31.407Z,28.94
2023-05-04T17:10:02.754Z,28.71
2023-05-04T17:12:31.532Z,29.65
2023-05-04T17:15:06.988Z,28.98
2023-05-04T17:17:35.335Z,29.34
2023-05-04T17:20:03.680Z,29.20
2023-05-04T17:22:31.916Z,29.81
2023-05-04T17:25:00.183Z,30.92
2023-05-04T17:27:31.652Z,31.07
2023-05-04T17:30:01.268Z,31.20
2023-05-04T17:32:32.095Z,32.26
2023-05-04T17:35:15.888Z,32.59
2023-05-04T17:37:51.453Z,31.53
2023-05-04T17:40:19.825Z,31.52
2023-05-04T17:42:49.081Z,31.37
2023-05-04T17:45:21.550Z,31.34
2023-05-04T17:47:55.159Z,31.70
2023-05-04T17:50:24.675Z,32.22
2023-05-04T17:52:55.252Z,32.62
2023-05-04T17:55:24.898Z,32.49
2023-05-04T17:57:54.533Z,33.40
2023-05-04T18:00:27.952Z,32.25
2023-05-04T18:02:56.375Z,32.27
2023-05-04T18:05:27.909Z,32.25
2023-05-04T18:08:12.079Z,32.11
2023-05-04T18:10:41.285Z,32.64
2023-05-04T18:13:09.516Z,32.78
2023-05-04T18:15:44.408Z,33.57
2023-05-04T18:18:28.198Z,34.82
2023-05-04T18:21:01.293Z,35.17
2023-05-04T18:23:32.287Z,35.10
2023-05-04T18:26:03.605Z,35.26
2023-05-04T18:28:35.783Z,35.54
2023-05-04T18:31:05.768Z,35.83
2023-05-04T18:33:40.617Z,35.90
2023-05-04T18:36:09.305Z,35.73
2023-05-04T18:38:41.018Z,35.93
2023-05-04T18:41:10.503Z,35.92
2023-05-04T18:43:46.034Z,36.28
2023-05-04T18:46:18.796Z,37.14
2023-05-04T18:48:52.705Z,37.38
2023-05-04T18:51:30.755Z,37.69
2023-05-04T18:53:58.995Z,38.05
2023-05-04T18:56:30.033Z,38.37
2023-05-04T18:58:58.193Z,38.90
2023-05-04T19:01:29.080Z,39.37
2023-05-04T19:04:06.466Z,39.96
2023-05-04T19:06:35.665Z,40.24
2023-05-04T19:09:08.150Z,40.52
2023-05-04T19:11:36.669Z,40.81
2023-05-04T19:14:04.808Z,40.83
2023-05-04T19:16:34.369Z,41.78
2023-05-04T19:19:02.559Z,42.11
2023-05-04T19:21:30.891Z,42.25
2023-05-04T19:23:59.001Z,42.61
2023-05-04T19:26:27.376Z,42.57
2023-05-04T19:28:55.650Z,42.87
2023-05-04T19:31:23.991Z,43.07
2023-05-04T19:33:53.761Z,43.68
2023-05-04T19:36:21.903Z,43.84
2023-05-04T19:38:50.129Z,43.74
2023-05-04T19:41:18.819Z,44.55
2023-05-04T19:43:46.968Z,44.19
2023-05-04T19:46:15.253Z,44.91
2023-05-04T19:48:43.721Z,44.81
2023-05-04T19:51:14.053Z,45.13
2023-05-04T19:53:42.261Z,45.12
2023-05-04T19:56:10.405Z,44.44
2023-05-04T19:58:38.659Z,44.31
2023-05-04T20:01:06.912Z,44.59
2023-05-04T20:03:35.483Z,44.41
2023-05-04T20:06:04.518Z,44.50
2023-05-04T20:08:34.170Z,45.16
2023-05-04T20:11:02.372Z,45.54
2023-05-04T20:13:30.611Z,46.57
2023-05-04T20:15:58.753Z,46.31
2023-05-04T20:18:26.911Z,46.36
2023-05-04T20:20:55.090Z,45.87
2023-05-04T20:23:23.690Z,45.06
2023-05-04T20:25:53.641Z,44.94
2023-05-04T20:28:23.076Z,44.90
2023-05-04T20:30:51.277Z,45.11
2023-05-04T20:33:25.428Z,46.42
2023-05-04T20:35:53.602Z,47.03
2023-05-04T20:38:21.762Z,47.36
2023-05-04T20:40:52.015Z,47.68
2023-05-04T20:43:25.455Z,48.11
2023-05-04T20:45:53.608Z,48.33
2023-05-04T20:48:21.860Z,48.84
2023-05-04T20:50:51.548Z,49.34
2023-05-04T20:53:21.415Z,49.88
2023-05-04T20:55:49.610Z,50.05
2023-05-04T20:58:20.215Z,49.70
2023-05-04T21:00:51.746Z,50.95
2023-05-04T21:03:20.172Z,51.11
2023-05-04T21:05:48.654Z,51.33
2023-05-04T21:08:16.818Z,51.15
2023-05-04T21:10:44.989Z,51.48
2023-05-04T21:13:13.269Z,50.82
2023-05-04T21:15:44.814Z,50.84
2023-05-04T21:18:14.610Z,51.19
2023-05-04T21:20:42.830Z,50.84
2023-05-04T21:23:11.985Z,51.93
2023-05-04T21:25:40.271Z,51.07
2023-05-04T21:28:08.532Z,50.68
2023-05-04T21:30:41.325Z,50.96
2023-05-04T21:33:09.504Z,51.29
2023-05-04T21:35:41.283Z,51.30
2023-05-04T21:38:09.541Z,51.15
2023-05-04T21:40:37.677Z,51.19
2023-05-04T21:43:05.912Z,50.84
2023-05-04T21:45:34.432Z,50.72
2023-05-04T21:48:03.761Z,50.65
2023-05-04T21:50:32.023Z,50.85
2023-05-04T21:53:01.634Z,51.63
2023-05-04T21:55:30.681Z,53.01
2023-05-04T21:57:58.935Z,52.53
2023-05-04T22:00:27.698Z,52.40
2023-05-04T22:02:56.099Z,51.32
2023-05-04T22:05:24.851Z,50.98
2023-05-04T22:07:53.120Z,50.33
2023-05-04T22:10:23.376Z,49.47
2023-05-04T22:12:53.513Z,49.34
2023-05-04T22:15:29.629Z,49.27
2023-05-04T22:18:07.605Z,48.96
2023-05-04T22:20:44.180Z,49.14
2023-05-04T22:23:12.988Z,49.17
2023-05-04T22:25:42.699Z,48.96
2023-05-04T22:28:11.501Z,48.87
2023-05-04T22:30:40.726Z,49.30
2023-05-04T22:33:09.176Z,48.94
2023-05-04T22:35:37.603Z,48.85
2023-05-04T22:38:06.152Z,49.02
2023-05-04T22:40:40.001Z,48.59
2023-05-04T22:43:12.989Z,48.95
2023-05-04T22:45:42.016Z,49.20
2023-05-04T22:48:10.378Z,49.11
2023-05-04T22:50:39.157Z,49.54
2023-05-04T22:53:07.824Z,50.02
2023-05-04T22:55:36.297Z,51.02
2023-05-04T22:58:04.706Z,51.46
2023-05-04T23:00:34.508Z,52.34
2023-05-04T23:03:06.131Z,52.91
2023-05-04T23:05:34.538Z,53.45
2023-05-04T23:08:03.820Z,54.96
2023-05-04T23:10:32.174Z,56.07
2023-05-04T23:13:00.429Z,56.63
2023-05-04T23:15:29.014Z,57.02
2023-05-04T23:17:58.642Z,56.90
2023-05-04T23:20:26.853Z,56.86
2023-05-04T23:22:55.149Z,56.86
2023-05-04T23:25:23.574Z,57.92
2023-05-04T23:27:51.863Z,57.72
2023-05-04T23:30:20.365Z,58.49
2023-05-04T23:32:48.622Z,58.86
2023-05-04T23:35:18.455Z,58.38
2023-05-04T23:37:46.592Z,59.47
2023-05-04T23:40:14.978Z,60.23
2023-05-04T23:42:44.532Z,60.53
2023-05-04T23:45:14.396Z,62.36
2023-05-04T23:47:42.522Z,63.06
2023-05-04T23:50:12.679Z,63.60
2023-05-04T23:52:42.179Z,61.77
2023-05-04T23:55:11.318Z,60.66
2023-05-04T23:57:46.532Z,60.45
